createdAt,value
2018-11-12T00:00:13.814Z,100762.13
2018-11-12T00:02:42.575Z,100758.28
2018-11-12T00:05:11.336Z,100747.99
2018-11-12T00:07:40.102Z,100741.57
2018-11-12T00:10:09.132Z,100748.27
2018-11-12T00:12:37.990Z,100754.61
2018-11-12T00:15:07.444Z,100758.77
2018-11-12T00:17:36.408Z,100763.53
2018-11-12T00:20:05.831Z,100757.00
2018-11-12T00:22:34.700Z,100756.81
2018-11-12T00:25:04.234Z,100748.58
2018-11-12T00:27:32.964Z,100753.81
2018-11-12T00:30:02.376Z,100750.34
2018-11-12T00:32:31.141Z,100756.08
2018-11-12T00:34:59.894Z,100757.57
2018-11-12T00:37:28.629Z,100764.33
2018-11-12T00:39:57.374Z,100765.36
2018-11-12T00:42:26.105Z,100784.39
2018-11-12T00:44:54.813Z,100792.50
2018-11-12T00:47:23.926Z,100795.36
2018-11-12T00:49:53.089Z,100793.13
2018-11-12T00:52:22.605Z,100794.70
2018-11-12T00:54:51.316Z,100780.41
2018-11-12T00:57:20.269Z,100781.83
2018-11-12T00:59:49.008Z,100784.55
2018-11-12T01:02:18.415Z,100777.28
2018-11-12T01:04:47.408Z,100788.66
2018-11-12T01:07:17.124Z,100787.69
2018-11-12T01:09:45.864Z,100788.42
2018-11-12T01:12:14.628Z,100796.83
2018-11-12T01:14:43.380Z,100803.09
2018-11-12T01:17:12.144Z,100804.42
2018-11-12T01:19:40.860Z,100799.41
2018-11-12T01:22:09.581Z,100807.25
2018-11-12T01:24:38.317Z,100799.41
2018-11-12T01:27:07.031Z,100783.34
2018-11-12T01:29:35.749Z,100784.98
2018-11-12T01:32:05.492Z,100793.91
2018-11-12T01:34:34.846Z,100800.72
2018-11-12T01:37:03.573Z,100799.41
2018-11-12T01:39:32.297Z,100793.91
2018-11-12T01:42:01.039Z,100789.98
2018-11-12T01:44:30.293Z,100790.84
2018-11-12T01:46:59.019Z,100788.58
2018-11-12T01:49:28.288Z,100796.23
2018-11-12T01:52:03.264Z,100802.30
2018-11-12T01:54:31.997Z,100806.11
2018-11-12T01:57:00.728Z,100802.02
2018-11-12T01:59:29.433Z,100794.86
2018-11-12T02:01:58.145Z,100796.81
2018-11-12T02:04:26.888Z,100797.03
2018-11-12T02:06:55.604Z,100812.32
2018-11-12T02:09:24.361Z,100799.09
2018-11-12T02:11:53.094Z,100785.29
2018-11-12T02:14:21.861Z,100780.06
2018-11-12T02:16:50.899Z,100790.34
2018-11-12T02:19:20.714Z,100790.69
2018-11-12T02:21:49.404Z,100784.81
2018-11-12T02:24:18.126Z,100783.40
2018-11-12T02:26:46.979Z,100783.02
2018-11-12T02:29:16.470Z,100792.08
2018-11-12T02:31:45.184Z,100788.90
2018-11-12T02:34:14.563Z,100799.24
2018-11-12T02:36:43.296Z,100791.57
2018-11-12T02:39:12.083Z,100791.47
2018-11-12T02:41:40.889Z,100794.35
2018-11-12T02:44:09.709Z,100789.40
2018-11-12T02:46:38.496Z,100786.29
2018-11-12T02:49:07.616Z,100785.94
2018-11-12T02:51:36.615Z,100777.36
2018-11-12T02:54:05.703Z,100773.28
2018-11-12T02:56:34.980Z,100772.90
2018-11-12T02:59:05.504Z,100763.29
2018-11-12T03:01:34.760Z,100768.90
2018-11-12T03:04:03.484Z,100760.22
2018-11-12T03:06:32.212Z,100745.38
2018-11-12T03:09:00.924Z,100749.30
2018-11-12T03:11:29.668Z,100759.64
2018-11-12T03:13:58.700Z,100758.53
2018-11-12T03:16:27.435Z,100760.73
2018-11-12T03:18:56.225Z,100760.81
2018-11-12T03:21:24.938Z,100764.73
2018-11-12T03:23:53.847Z,100759.78
2018-11-12T03:26:22.546Z,100770.05
2018-11-12T03:28:51.265Z,100778.69
2018-11-12T03:31:19.972Z,100775.16
2018-11-12T03:33:48.709Z,100775.91
2018-11-12T03:36:17.740Z,100786.41
2018-11-12T03:38:46.461Z,100791.53
2018-11-12T03:41:16.164Z,100806.17
2018-11-12T03:43:45.016Z,100815.11
2018-11-12T03:46:13.730Z,100819.52
2018-11-12T03:48:43.576Z,100822.48
2018-11-12T03:51:12.301Z,100827.70
2018-11-12T03:53:41.680Z,100826.78
2018-11-12T03:58:45.352Z,100824.73
2018-11-12T04:01:14.402Z,100833.61
2018-11-12T04:03:43.495Z,100843.38
2018-11-12T04:06:12.528Z,100844.41
2018-11-12T04:08:42.323Z,100843.03
2018-11-12T04:11:11.031Z,100840.03
2018-11-12T04:13:40.334Z,100836.68
2018-11-12T04:16:09.048Z,100834.74
2018-11-12T04:18:37.925Z,100842.19
2018-11-12T04:21:06.636Z,100845.47
2018-11-12T04:23:35.349Z,100837.14
2018-11-12T04:26:04.879Z,100825.77
2018-11-12T04:28:33.609Z,100828.73
2018-11-12T04:31:02.328Z,100828.73
2018-11-12T04:33:31.046Z,100826.97
2018-11-12T04:36:02.750Z,100823.68
2018-11-12T04:38:31.469Z,100818.27
2018-11-12T04:41:00.700Z,100814.70
2018-11-12T04:43:29.408Z,100813.16
2018-11-12T04:45:58.666Z,100815.27
2018-11-12T04:48:27.393Z,100816.41
2018-11-12T04:50:56.116Z,100827.14
2018-11-12T04:53:24.830Z,100819.58
2018-11-12T04:55:53.572Z,100805.56
2018-11-12T04:58:22.280Z,100809.86
2018-11-12T05:00:51.012Z,100812.02
2018-11-12T05:03:19.720Z,100819.36
2018-11-12T05:05:48.448Z,100811.06
2018-11-12T05:08:17.175Z,100807.03
2018-11-12T05:10:45.934Z,100793.45
2018-11-12T05:13:14.661Z,100792.49
2018-11-12T05:15:43.840Z,100781.97
2018-11-12T05:18:12.941Z,100782.78
2018-11-12T05:20:41.627Z,100785.31
2018-11-12T05:23:10.985Z,100783.52
2018-11-12T05:25:39.708Z,100791.28
2018-11-12T05:28:09.040Z,100803.50
2018-11-12T05:30:37.769Z,100811.34
2018-11-12T05:33:07.172Z,100814.62
2018-11-12T05:35:35.904Z,100805.96
2018-11-12T05:38:05.723Z,100806.93
2018-11-12T05:40:34.440Z,100796.31
2018-11-12T05:43:03.139Z,100787.11
2018-11-12T05:45:31.941Z,100790.01
2018-11-12T05:48:01.655Z,100790.96
2018-11-12T05:50:31.923Z,100781.44
2018-11-12T05:53:02.591Z,100786.20
2018-11-12T05:55:31.794Z,100787.05
2018-11-12T05:58:01.100Z,100790.67
2018-11-12T06:00:36.955Z,100785.63
2018-11-12T06:03:05.814Z,100785.91
2018-11-12T06:05:35.125Z,100782.09
2018-11-12T06:08:04.002Z,100783.86
2018-11-12T06:10:33.815Z,100778.53
2018-11-12T06:13:03.758Z,100783.30
2018-11-12T06:15:32.452Z,100773.48
2018-11-12T06:18:01.164Z,100767.23
2018-11-12T06:20:31.420Z,100770.46
2018-11-12T06:23:00.361Z,100767.67
2018-11-12T06:25:30.490Z,100765.41
2018-11-12T06:27:59.277Z,100767.91
2018-11-12T06:30:29.764Z,100778.28
2018-11-12T06:32:58.468Z,100791.42
2018-11-12T06:35:27.168Z,100796.57
2018-11-12T06:37:56.519Z,100791.91
2018-11-12T06:40:26.080Z,100804.48
2018-11-12T06:42:54.812Z,100807.09
2018-11-12T06:45:25.755Z,100813.38
2018-11-12T06:47:55.369Z,100820.73
2018-11-12T06:50:26.296Z,100820.16
2018-11-12T06:52:55.159Z,100815.31
2018-11-12T06:55:24.277Z,100816.52
2018-11-12T06:57:53.546Z,100814.02
2018-11-12T07:00:24.512Z,100814.94
2018-11-12T07:02:54.082Z,100825.38
2018-11-12T07:05:22.823Z,100831.62
2018-11-12T07:07:51.552Z,100832.75
2018-11-12T07:10:21.732Z,100840.83
2018-11-12T07:12:56.949Z,100840.08
2018-11-12T07:15:42.372Z,100831.50
2018-11-12T07:18:16.777Z,100831.91
2018-11-12T07:20:45.503Z,100829.23
2018-11-12T07:23:14.249Z,100825.22
2018-11-12T07:25:42.956Z,100835.41
2018-11-12T07:28:11.673Z,100831.67
2018-11-12T07:30:40.745Z,100833.27
2018-11-12T07:33:09.615Z,100827.94
2018-11-12T07:35:38.583Z,100821.86
2018-11-12T07:38:07.288Z,100829.87
2018-11-12T07:40:35.986Z,100825.77
2018-11-12T07:43:05.068Z,100826.34
2018-11-12T07:45:33.988Z,100829.23
2018-11-12T07:48:02.952Z,100826.51
2018-11-12T07:50:31.804Z,100829.02
2018-11-12T07:53:00.539Z,100833.95
2018-11-12T07:55:29.592Z,100830.77
2018-11-12T07:57:59.209Z,100813.39
2018-11-12T08:00:30.138Z,100817.87
2018-11-12T08:03:06.052Z,100809.00
2018-11-12T08:05:35.076Z,100808.50
2018-11-12T08:08:04.953Z,100808.42
2018-11-12T08:10:33.713Z,100807.75
2018-11-12T08:13:02.427Z,100805.02
2018-11-12T08:15:31.400Z,100809.22
2018-11-12T08:18:00.100Z,100799.39
2018-11-12T08:20:28.807Z,100791.44
2018-11-12T08:22:57.518Z,100799.44
2018-11-12T08:25:26.209Z,100799.60
2018-11-12T08:27:54.912Z,100801.08
2018-11-12T08:30:24.904Z,100794.45
2018-11-12T08:32:54.844Z,100789.01
2018-11-12T08:35:23.544Z,100784.62
2018-11-12T08:37:52.635Z,100787.39
2018-11-12T08:40:22.714Z,100788.86
2018-11-12T08:42:51.367Z,100785.29
2018-11-12T08:45:20.072Z,100786.98
2018-11-12T08:47:50.120Z,100784.14
2018-11-12T08:50:20.118Z,100786.10
2018-11-12T08:52:49.608Z,100785.98
2018-11-12T08:55:19.547Z,100798.69
2018-11-12T08:57:49.636Z,100785.03
2018-11-12T09:00:19.181Z,100798.11
2018-11-12T09:02:48.090Z,100810.26
2018-11-12T09:05:17.937Z,100799.06
2018-11-12T09:07:48.144Z,100790.27
2018-11-12T09:10:18.492Z,100788.77
2018-11-12T09:12:47.317Z,100768.19
2018-11-12T09:15:16.204Z,100771.19
2018-11-12T09:17:45.891Z,100771.53
2018-11-12T09:20:16.187Z,100777.30
2018-11-12T09:22:44.937Z,100783.27
2018-11-12T09:25:15.826Z,100791.00
2018-11-12T09:27:44.720Z,100785.53
2018-11-12T09:30:15.251Z,100772.57
2018-11-12T09:32:44.303Z,100770.91
2018-11-12T09:35:16.029Z,100780.80
2018-11-12T09:37:45.897Z,100787.00
2018-11-12T09:40:19.033Z,100801.19
2018-11-12T09:42:47.822Z,100796.69
2018-11-12T09:45:16.546Z,100785.22
2018-11-12T09:47:45.605Z,100772.86
2018-11-12T09:50:15.449Z,100780.48
2018-11-12T09:52:45.314Z,100778.33
2018-11-12T09:55:14.629Z,100761.55
2018-11-12T09:57:45.616Z,100780.59
2018-11-12T10:00:15.732Z,100793.45
2018-11-12T10:02:46.274Z,100785.83
2018-11-12T10:05:15.704Z,100791.80
2018-11-12T10:07:45.702Z,100795.60
2018-11-12T10:10:23.448Z,100797.38
2018-11-12T10:12:52.084Z,100813.00
2018-11-12T10:15:22.189Z,100812.27
2018-11-12T10:17:50.054Z,100806.30
2018-11-12T10:20:16.188Z,100791.80
2018-11-12T10:22:45.036Z,100800.50
2018-11-12T10:25:13.756Z,100778.72
2018-11-12T10:27:42.448Z,100770.38
2018-11-12T10:30:11.160Z,100771.11
2018-11-12T10:32:40.079Z,100773.61
2018-11-12T10:35:09.420Z,100777.83
2018-11-12T10:37:38.800Z,100783.95
2018-11-12T10:40:09.909Z,100772.68
2018-11-12T10:42:38.649Z,100766.34
2018-11-12T10:45:07.465Z,100764.56
2018-11-12T10:47:36.197Z,100767.53
2018-11-12T10:50:05.882Z,100758.64
2018-11-12T10:52:34.807Z,100763.59
2018-11-12T10:55:05.367Z,100761.81
2018-11-12T10:57:32.208Z,100765.59
2018-11-12T11:00:00.912Z,100759.52
2018-11-12T11:02:32.641Z,100761.81
2018-11-12T11:05:01.822Z,100766.81
2018-11-12T11:07:30.500Z,100777.67
2018-11-12T11:09:59.373Z,100788.13
2018-11-12T11:12:28.099Z,100784.21
2018-11-12T11:14:56.807Z,100793.25
2018-11-12T11:17:25.520Z,100795.02
2018-11-12T11:19:54.248Z,100782.20
2018-11-12T11:22:22.989Z,100761.73
2018-11-12T11:24:51.688Z,100760.31
2018-11-12T11:27:20.388Z,100767.12
2018-11-12T11:29:49.099Z,100767.38
2018-11-12T11:32:17.804Z,100773.23
2018-11-12T11:34:46.503Z,100775.84
2018-11-12T11:37:15.430Z,100784.89
2018-11-12T11:39:44.129Z,100786.46
2018-11-12T11:42:12.836Z,100786.92
2018-11-12T11:44:41.545Z,100781.34
2018-11-12T11:47:10.253Z,100782.53
2018-11-12T11:49:39.032Z,100780.64
2018-11-12T11:52:07.737Z,100773.52
2018-11-12T11:54:36.468Z,100766.52
2018-11-12T11:57:05.384Z,100767.82
2018-11-12T11:59:34.099Z,100764.02
2018-11-12T12:02:02.821Z,100769.02
2018-11-12T12:04:31.522Z,100771.42
2018-11-12T12:07:00.247Z,100776.08
2018-11-12T12:09:29.007Z,100782.97
2018-11-12T12:11:57.707Z,100791.88
2018-11-12T12:14:26.408Z,100792.57
2018-11-12T12:16:55.113Z,100790.42
2018-11-12T12:19:23.816Z,100795.66
2018-11-12T12:21:52.793Z,100798.77
2018-11-12T12:24:21.558Z,100800.08
2018-11-12T12:26:50.332Z,100807.20
2018-11-12T12:29:19.384Z,100814.09
2018-11-12T12:31:48.080Z,100813.63
2018-11-12T12:34:16.797Z,100821.60
2018-11-12T12:36:45.832Z,100821.19
2018-11-12T12:39:14.476Z,100827.93
2018-11-12T12:41:43.174Z,100838.74
2018-11-12T12:44:12.154Z,100837.16
2018-11-12T12:46:40.853Z,100836.44
2018-11-12T12:49:09.559Z,100824.62
2018-11-12T12:51:38.339Z,100823.08
2018-11-12T12:54:06.996Z,100820.47
2018-11-12T12:56:35.711Z,100825.58
2018-11-12T12:59:05.764Z,100825.97
2018-11-12T13:01:34.499Z,100826.70
2018-11-12T13:04:04.002Z,100829.20
2018-11-12T13:06:32.767Z,100831.62
2018-11-12T13:09:01.668Z,100831.04
2018-11-12T13:11:30.371Z,100834.39
2018-11-12T13:13:59.343Z,100841.52
2018-11-12T13:16:28.005Z,100840.13
2018-11-12T13:18:56.708Z,100837.16
2018-11-12T13:21:25.464Z,100835.23
2018-11-12T13:23:54.129Z,100828.70
2018-11-12T13:26:22.843Z,100832.36
2018-11-12T13:28:51.536Z,100837.70
2018-11-12T13:31:20.254Z,100830.78
2018-11-12T13:33:48.976Z,100836.39
2018-11-12T13:36:17.673Z,100840.55
2018-11-12T13:38:46.499Z,100837.20
2018-11-12T13:41:15.200Z,100835.44
2018-11-12T13:43:43.888Z,100826.43
2018-11-12T13:46:12.596Z,100821.46
2018-11-12T13:48:41.355Z,100818.58
2018-11-12T13:51:10.040Z,100815.84
2018-11-12T13:53:38.733Z,100817.57
2018-11-12T13:56:07.964Z,100825.46
2018-11-12T13:58:37.644Z,100818.34
2018-11-12T14:01:07.168Z,100808.98
2018-11-12T14:03:35.888Z,100809.70
2018-11-12T14:06:04.899Z,100823.87
2018-11-12T14:08:33.620Z,100822.25
2018-11-12T14:11:03.248Z,100817.63
2018-11-12T14:13:31.947Z,100823.13
2018-11-12T14:16:00.651Z,100830.63
2018-11-12T14:18:29.376Z,100834.55
2018-11-12T14:20:58.760Z,100832.41
2018-11-12T14:23:27.424Z,100843.08
2018-11-12T14:25:56.128Z,100845.46
2018-11-12T14:28:24.946Z,100847.35
2018-11-12T14:30:53.549Z,100863.06
2018-11-12T14:33:22.309Z,100857.91
2018-11-12T14:35:51.030Z,100867.91
2018-11-12T14:38:19.695Z,100884.66
2018-11-12T14:40:48.413Z,100891.91
2018-11-12T14:43:17.140Z,100882.97
2018-11-12T14:45:45.831Z,100895.56
2018-11-12T14:48:14.533Z,100899.87
2018-11-12T14:50:43.271Z,100893.67
2018-11-12T14:53:12.000Z,100882.39
2018-11-12T14:55:40.712Z,100885.73
2018-11-12T14:58:09.468Z,100889.40
2018-11-12T15:00:38.361Z,100891.91
2018-11-12T15:03:07.053Z,100897.41
2018-11-12T15:05:35.747Z,100901.33
2018-11-12T15:08:05.332Z,100924.78
2018-11-12T15:10:34.069Z,100918.92
2018-11-12T15:13:02.763Z,100940.33
2018-11-12T15:15:31.493Z,100956.45
2018-11-12T15:18:00.200Z,100955.03
2018-11-12T15:20:28.929Z,100959.30
2018-11-12T15:22:57.625Z,100964.61
2018-11-12T15:25:26.400Z,100962.37
2018-11-12T15:27:55.129Z,100964.37
2018-11-12T15:33:23.362Z,100964.70
2018-11-12T15:35:52.561Z,100952.19
2018-11-12T15:38:21.365Z,100955.45
2018-11-12T15:40:50.067Z,100944.77
2018-11-12T15:43:18.855Z,100943.00
2018-11-12T15:45:47.653Z,100950.00
2018-11-12T15:48:16.350Z,100952.34
2018-11-12T15:50:45.067Z,100962.81
2018-11-12T15:53:13.746Z,100960.94
2018-11-12T15:55:42.453Z,100965.59
2018-11-12T15:58:11.194Z,100984.48
2018-11-12T16:00:39.920Z,100985.55
2018-11-12T16:03:08.614Z,100996.09
2018-11-12T16:05:37.529Z,100998.47
2018-11-12T16:08:07.071Z,100992.66
2018-11-12T16:10:35.756Z,100997.16
2018-11-12T16:13:04.941Z,101010.14
2018-11-12T16:15:33.661Z,101006.67
2018-11-12T16:18:02.412Z,101006.86
2018-11-12T16:20:31.299Z,101012.37
2018-11-12T16:23:00.880Z,101023.87
2018-11-12T16:25:30.026Z,101029.75
2018-11-12T16:27:58.807Z,101036.39
2018-11-12T16:30:27.514Z,101031.45
2018-11-12T16:32:56.225Z,101040.26
2018-11-12T16:35:25.437Z,101025.41
2018-11-12T16:37:54.832Z,101027.45
2018-11-12T16:40:23.612Z,101038.38
2018-11-12T16:42:52.260Z,101045.38
2018-11-12T16:45:21.002Z,101042.77
2018-11-12T16:47:49.707Z,101045.10
2018-11-12T16:50:18.532Z,101069.22
2018-11-12T16:52:47.350Z,101064.48
2018-11-12T16:55:17.396Z,101068.75
2018-11-12T16:57:46.261Z,101069.22
2018-11-12T17:00:17.008Z,101073.63
2018-11-12T17:02:46.624Z,101092.77
2018-11-12T17:05:16.837Z,101097.92
2018-11-12T17:07:46.443Z,101088.77
2018-11-12T17:10:22.853Z,101087.46
2018-11-12T17:12:51.564Z,101095.88
2018-11-12T17:15:20.259Z,101094.57
2018-11-12T17:17:49.177Z,101100.08
2018-11-12T17:20:19.194Z,101104.00
2018-11-12T17:22:48.565Z,101112.48
2018-11-12T17:25:17.628Z,101093.25
2018-11-12T17:27:46.663Z,101089.69
2018-11-12T17:30:18.120Z,101110.05
2018-11-12T17:32:47.332Z,101112.38
2018-11-12T17:35:17.424Z,101133.59
2018-11-12T17:37:46.132Z,101132.28
2018-11-12T17:40:18.875Z,101142.39
2018-11-12T17:42:48.508Z,101145.02
2018-11-12T17:45:18.454Z,101150.14
2018-11-12T17:47:48.972Z,101133.98
2018-11-12T17:50:18.476Z,101139.57
2018-11-12T17:52:47.232Z,101160.89
2018-11-12T17:55:16.945Z,101163.22
2018-11-12T17:57:45.645Z,101161.27
2018-11-12T18:00:17.708Z,101165.20
2018-11-12T18:02:46.864Z,101168.38
2018-11-12T18:05:15.571Z,101186.87
2018-11-12T18:07:44.407Z,101180.53
2018-11-12T18:10:13.964Z,101179.61
2018-11-12T18:12:42.683Z,101196.61
2018-11-12T18:15:17.935Z,101183.24
2018-11-12T18:17:46.708Z,101194.73
2018-11-12T18:20:17.111Z,101206.98
2018-11-12T18:22:45.863Z,101194.08
2018-11-12T18:25:15.021Z,101204.55
2018-11-12T18:30:43.907Z,101234.53
2018-11-12T18:33:12.344Z,101236.40
2018-11-12T18:35:41.093Z,101232.58
2018-11-12T18:38:09.836Z,101244.16
2018-11-12T18:40:38.535Z,101238.08
2018-11-12T18:43:07.283Z,101236.02
2018-11-12T18:45:36.000Z,101229.66
2018-11-12T18:48:04.770Z,101230.77
2018-11-12T18:50:33.470Z,101236.84
2018-11-12T18:53:02.212Z,101240.48
2018-11-12T18:55:30.924Z,101229.83
2018-11-12T18:57:59.787Z,101238.16
2018-11-12T19:00:28.516Z,101239.47
2018-11-12T19:02:57.316Z,101250.38
2018-11-12T19:05:27.225Z,101253.16
2018-11-12T19:07:57.255Z,101252.70
2018-11-12T19:10:27.259Z,101255.39
2018-11-12T19:12:55.968Z,101256.30
2018-11-12T19:15:26.085Z,101250.72
2018-11-12T19:17:58.143Z,101256.40
2018-11-12T19:20:26.865Z,101269.36
2018-11-12T19:22:55.817Z,101290.08
2018-11-12T19:25:24.905Z,101277.01
2018-11-12T19:27:53.939Z,101266.75
2018-11-12T19:30:24.016Z,101276.19
2018-11-12T19:32:58.956Z,101277.50
2018-11-12T19:35:29.054Z,101264.48
2018-11-12T19:37:57.900Z,101257.66
2018-11-12T19:40:27.921Z,101272.78
2018-11-12T19:42:58.708Z,101271.58
2018-11-12T19:45:27.621Z,101270.08
2018-11-12T19:47:56.411Z,101282.48
2018-11-12T19:50:26.437Z,101290.22
2018-11-12T19:52:56.269Z,101292.63
2018-11-12T19:55:41.160Z,101300.61
2018-11-12T19:58:11.624Z,101296.61
2018-11-12T20:00:40.791Z,101289.71
2018-11-12T20:03:09.501Z,101293.63
2018-11-12T20:05:38.226Z,101288.86
2018-11-12T20:08:07.037Z,101298.47
2018-11-12T20:10:35.860Z,101300.27
2018-11-12T20:15:53.696Z,101303.42
2018-11-12T20:18:22.500Z,101304.34
2018-11-12T20:20:51.233Z,101304.59
2018-11-12T20:23:19.964Z,101305.08
2018-11-12T20:25:48.674Z,101304.33
2018-11-12T20:28:17.405Z,101318.70
2018-11-12T20:30:46.211Z,101318.30
2018-11-12T20:33:15.328Z,101310.91
2018-11-12T20:35:44.002Z,101305.39
2018-11-12T20:38:13.112Z,101316.38
2018-11-12T20:40:41.833Z,101313.31
2018-11-12T20:43:10.564Z,101321.52
2018-11-12T20:45:39.309Z,101316.29
2018-11-12T20:48:08.346Z,101320.14
2018-11-12T20:50:43.696Z,101326.58
2018-11-12T20:53:12.765Z,101326.58
2018-11-12T20:55:41.800Z,101326.19
2018-11-12T20:58:10.738Z,101341.11
2018-11-12T21:00:39.677Z,101339.04
2018-11-12T21:03:14.595Z,101347.06
2018-11-12T21:05:43.484Z,101342.20
2018-11-12T21:08:12.201Z,101330.18
2018-11-12T21:10:40.953Z,101322.50
2018-11-12T21:13:09.663Z,101328.03
2018-11-12T21:15:38.428Z,101330.45
2018-11-12T21:18:07.228Z,101323.01
2018-11-12T21:20:36.822Z,101323.77
2018-11-12T21:23:05.860Z,101319.00
2018-11-12T21:25:34.824Z,101324.61
2018-11-12T21:28:03.813Z,101319.45
2018-11-12T21:30:32.898Z,101314.41
2018-11-12T21:33:01.796Z,101300.60
2018-11-12T21:35:30.769Z,101292.56
2018-11-12T21:37:59.520Z,101291.81
2018-11-12T21:40:29.032Z,101290.86
2018-11-12T21:42:58.131Z,101295.17
2018-11-12T21:45:28.429Z,101303.92
2018-11-12T21:47:57.436Z,101317.92
2018-11-12T21:50:26.231Z,101299.19
2018-11-12T21:52:54.972Z,101292.36
2018-11-12T21:55:23.729Z,101301.95
2018-11-12T21:57:52.440Z,101305.77
2018-11-12T22:00:22.714Z,101317.16
2018-11-12T22:02:53.808Z,101328.52
2018-11-12T22:05:22.820Z,101337.30
2018-11-12T22:07:51.691Z,101334.84
2018-11-12T22:10:20.698Z,101334.02
2018-11-12T22:12:50.426Z,101327.61
2018-11-12T22:15:26.112Z,101332.77
2018-11-12T22:17:54.827Z,101335.39
2018-11-12T22:20:25.036Z,101334.38
2018-11-12T22:22:53.736Z,101335.78
2018-11-12T22:25:22.945Z,101333.78
2018-11-12T22:27:52.697Z,101327.31
2018-11-12T22:30:23.575Z,101332.17
2018-11-12T22:32:53.189Z,101329.66
2018-11-12T22:35:22.912Z,101322.91
2018-11-12T22:37:51.600Z,101323.83
2018-11-12T22:40:21.352Z,101333.45
2018-11-12T22:42:50.857Z,101340.34
2018-11-12T22:45:20.748Z,101344.80
2018-11-12T22:47:50.980Z,101352.72
2018-11-12T22:50:19.693Z,101359.40
2018-11-12T22:52:48.419Z,101365.70
2018-11-12T22:55:18.575Z,101370.11
2018-11-12T22:57:47.281Z,101372.72
2018-11-12T23:00:24.233Z,101374.94
2018-11-12T23:02:53.169Z,101376.70
2018-11-12T23:05:22.161Z,101371.47
2018-11-12T23:07:51.304Z,101370.22
2018-11-12T23:10:20.438Z,101374.73
2018-11-12T23:12:49.184Z,101376.31
2018-11-12T23:15:18.427Z,101365.80
2018-11-12T23:17:47.154Z,101361.30
2018-11-12T23:20:17.836Z,101355.37
2018-11-12T23:22:47.351Z,101358.61
2018-11-12T23:25:16.051Z,101363.47
2018-11-12T23:27:45.564Z,101358.03
2018-11-12T23:30:15.560Z,101361.40
2018-11-12T23:32:44.436Z,101363.30
2018-11-12T23:35:15.495Z,101359.92
2018-11-12T23:37:44.792Z,101360.95
2018-11-12T23:40:13.891Z,101347.06
2018-11-12T23:42:43.116Z,101350.89
2018-11-12T23:45:11.860Z,101356.87
2018-11-12T23:47:40.689Z,101360.41
2018-11-12T23:50:11.605Z,101362.53
2018-11-12T23:52:40.803Z,101368.60
2018-11-12T23:55:09.623Z,101366.00
2018-11-12T23:57:38.336Z,101366.84
